Time;durP1;ratioP1;P1;durP2;ratioP2;P2;SDS_P1;SDS_P2;PMS_P1;PMS_P2;Temp;Humidity;BMP_temperature;BMP_pressure;BME280_temperature;BME280_humidity;BME280_pressure;Samples;Min_cycle;Max_cycle;Signal;HPM_P1;HPM_P2
2021/12/26 00:01:00;;;;;;;0.90;0.90;;;-7.60;99.90;;;;;;5053422;28;20197;-75
2021/12/26 00:03:27;;;;;;;0.90;0.90;;;-7.60;99.90;;;;;;5054982;28;20192;-75
2021/12/26 00:05:55;;;;;;;1.00;1.00;;;-7.60;99.90;;;;;;5060047;28;20209;-74
2021/12/26 00:08:22;;;;;;;0.90;0.90;;;-7.40;99.90;;;;;;5070025;28;20295;-75
2021/12/26 00:10:49;;;;;;;1.00;1.00;;;-7.40;99.90;;;;;;5052322;28;20197;-74
2021/12/26 00:13:19;;;;;;;1.00;1.00;;;-7.30;99.90;;;;;;5054637;28;20567;-73
2021/12/26 00:15:45;;;;;;;0.90;0.90;;;-7.10;99.90;;;;;;5052931;28;20236;-72
2021/12/26 00:18:11;;;;;;;0.90;0.90;;;-7.00;99.90;;;;;;5071509;28;20216;-75
2021/12/26 00:20:38;;;;;;;0.90;0.90;;;-6.80;99.90;;;;;;5069708;28;20213;-75
2021/12/26 00:23:05;;;;;;;1.00;1.00;;;-6.70;99.90;;;;;;5054145;28;20667;-75
2021/12/26 00:25:32;;;;;;;0.90;0.90;;;-6.40;99.90;;;;;;5069742;28;20233;-74
2021/12/26 00:27:58;;;;;;;0.90;0.90;;;-6.10;99.90;;;;;;5070853;28;20730;-75
2021/12/26 00:30:24;;;;;;;0.90;0.90;;;-5.60;99.90;;;;;;5069823;28;20208;-75
2021/12/26 00:32:50;;;;;;;0.90;0.90;;;-5.50;99.90;;;;;;5070849;28;20200;-74
2021/12/26 00:35:17;;;;;;;0.90;0.90;;;-5.20;99.90;;;;;;5069627;28;20687;-75
2021/12/26 00:37:44;;;;;;;0.80;0.80;;;-4.90;99.90;;;;;;5069558;28;20239;-75
2021/12/26 00:40:12;;;;;;;0.90;0.90;;;-5.00;99.90;;;;;;5070953;28;20235;-75
2021/12/26 00:42:38;;;;;;;0.80;0.80;;;-4.90;99.90;;;;;;5053750;28;20250;-74
2021/12/26 00:45:05;;;;;;;0.90;0.90;;;-4.70;99.90;;;;;;5071955;28;20283;-74
2021/12/26 00:47:32;;;;;;;0.90;0.90;;;-4.40;99.90;;;;;;5073119;28;20732;-73
2021/12/26 00:49:59;;;;;;;1.00;1.00;;;-4.40;99.90;;;;;;5073349;28;20295;-72
2021/12/26 00:52:25;;;;;;;0.90;0.90;;;-4.50;99.90;;;;;;5055058;28;20197;-73
2021/12/26 00:54:50;;;;;;;0.90;0.90;;;-4.50;99.90;;;;;;5073200;28;20664;-74
2021/12/26 00:57:16;;;;;;;0.90;0.90;;;-4.30;99.90;;;;;;5074347;28;20271;-74
2021/12/26 00:59:42;;;;;;;0.90;0.90;;;-4.40;99.90;;;;;;5056154;28;20208;-75
2021/12/26 01:02:08;;;;;;;0.75;0.75;;;-4.30;99.90;;;;;;5072348;28;20605;-74
2021/12/26 01:04:33;;;;;;;0.90;0.90;;;-4.20;99.90;;;;;;5074078;28;20586;-74
2021/12/26 01:07:00;;;;;;;0.85;0.85;;;-4.30;99.90;;;;;;5072873;28;20209;-75
2021/12/26 01:09:28;;;;;;;0.90;0.90;;;-4.40;99.90;;;;;;5056235;28;20254;-75
2021/12/26 01:12:00;;;;;;;0.90;0.90;;;-4.40;99.90;;;;;;5072942;28;20198;-75
2021/12/26 01:14:29;;;;;;;0.85;0.85;;;-4.80;99.90;;;;;;5071716;28;20207;-76
2021/12/26 01:17:05;;;;;;;0.90;0.90;;;-5.40;99.90;;;;;;5054525;28;20209;-75
2021/12/26 01:19:43;;;;;;;0.98;0.98;;;-6.00;99.90;;;;;;5054561;28;20265;-75
2021/12/26 01:22:09;;;;;;;0.90;0.90;;;-6.50;99.90;;;;;;5056187;28;20206;-75
2021/12/26 01:24:35;;;;;;;1.10;1.07;;;-6.90;99.90;;;;;;5073557;28;20232;-74
2021/12/26 01:27:02;;;;;;;0.90;0.90;;;-7.30;99.90;;;;;;5055596;28;20247;-75
2021/12/26 01:29:28;;;;;;;1.00;1.00;;;-7.50;99.90;;;;;;5073394;28;20287;-74
2021/12/26 01:31:54;;;;;;;1.00;1.00;;;-7.60;99.90;;;;;;5072509;28;20276;-75
2021/12/26 01:34:19;;;;;;;0.93;0.90;;;-7.70;99.90;;;;;;5067583;28;20691;-74
2021/12/26 01:36:46;;;;;;;1.00;1.00;;;-7.80;99.90;;;;;;5067064;28;20676;-74
2021/12/26 01:39:12;;;;;;;1.00;1.00;;;-7.90;99.90;;;;;;5072533;28;20205;-75
2021/12/26 01:41:41;;;;;;;0.90;0.90;;;-7.90;99.90;;;;;;5072044;28;20208;-75
2021/12/26 01:44:11;;;;;;;0.90;0.90;;;-8.00;99.90;;;;;;5072411;28;20224;-74
2021/12/26 01:46:37;;;;;;;0.90;0.90;;;-7.90;99.90;;;;;;5072102;28;20205;-73
2021/12/26 01:49:16;;;;;;;0.93;0.93;;;-7.90;99.90;;;;;;5072175;28;20296;-74
2021/12/26 01:51:43;;;;;;;0.90;0.90;;;-7.80;99.90;;;;;;5053955;28;20192;-74
2021/12/26 01:54:11;;;;;;;0.90;0.90;;;-7.80;99.90;;;;;;5055252;28;20204;-74
2021/12/26 01:56:39;;;;;;;1.00;1.00;;;-7.80;99.90;;;;;;5053876;28;20288;-74
2021/12/26 01:59:06;;;;;;;1.00;1.00;;;-7.90;99.90;;;;;;5054364;28;20204;-74
2021/12/26 02:01:32;;;;;;;0.90;0.90;;;-8.00;99.90;;;;;;5072026;28;20200;-74
2021/12/26 02:04:00;;;;;;;0.97;0.97;;;-8.10;99.90;;;;;;5053686;28;20201;-74
2021/12/26 02:06:26;;;;;;;0.90;0.90;;;-8.20;99.90;;;;;;5072602;28;20235;-75
2021/12/26 02:08:52;;;;;;;0.90;0.90;;;-8.30;99.90;;;;;;5072956;28;20236;-75
2021/12/26 02:11:18;;;;;;;0.90;0.90;;;-8.30;99.90;;;;;;5072818;28;20197;-74
2021/12/26 02:13:43;;;;;;;1.00;1.00;;;-8.30;99.90;;;;;;5072796;28;20243;-75
2021/12/26 02:16:11;;;;;;;1.00;1.00;;;-8.30;99.90;;;;;;5055892;28;20205;-74
2021/12/26 02:18:37;;;;;;;0.90;0.90;;;-8.20;99.90;;;;;;5055011;28;20551;-75
2021/12/26 02:23:44;;;;;;;1.00;1.00;;;-8.10;99.90;;;;;;5071349;28;20239;-74
2021/12/26 02:28:42;;;;;;;1.00;1.00;;;-8.00;99.90;;;;;;5071165;28;20220;-75
2021/12/26 02:31:08;;;;;;;0.90;0.90;;;-7.90;99.90;;;;;;5055384;28;20205;-75
2021/12/26 02:33:34;;;;;;;0.80;0.80;;;-7.80;99.90;;;;;;5071145;28;20193;-75
2021/12/26 02:36:01;;;;;;;0.90;0.90;;;-7.80;99.90;;;;;;5052221;28;20330;-75
2021/12/26 02:38:27;;;;;;;0.90;0.90;;;-7.80;99.90;;;;;;5073237;28;20216;-75
2021/12/26 02:40:55;;;;;;;0.93;0.93;;;-7.80;99.90;;;;;;5072132;28;20208;-75
2021/12/26 02:43:23;;;;;;;1.00;1.00;;;-7.80;99.90;;;;;;5070980;28;20215;-75
2021/12/26 02:45:49;;;;;;;1.00;1.00;;;-7.90;99.90;;;;;;5071059;28;20682;-75
2021/12/26 02:48:16;;;;;;;1.00;1.00;;;-7.90;99.90;;;;;;5072040;28;20205;-75
2021/12/26 02:50:44;;;;;;;0.90;0.90;;;-7.90;99.90;;;;;;5070900;28;20206;-75
2021/12/26 02:53:11;;;;;;;1.00;1.00;;;-8.00;99.90;;;;;;5053877;28;20200;-74
2021/12/26 02:55:38;;;;;;;0.90;0.90;;;-8.10;99.90;;;;;;5068956;28;20801;-74
2021/12/26 02:58:06;;;;;;;0.90;0.90;;;-8.10;99.90;;;;;;5053895;28;20671;-75
2021/12/26 03:00:38;;;;;;;0.90;0.90;;;-8.20;99.90;;;;;;5050437;28;20698;-75
2021/12/26 03:03:05;;;;;;;0.90;0.90;;;-8.30;99.90;;;;;;5057845;28;20208;-75
2021/12/26 03:05:34;;;;;;;0.80;0.80;;;-8.40;99.90;;;;;;5071623;28;20291;-75
2021/12/26 03:08:00;;;;;;;0.90;0.90;;;-8.40;99.90;;;;;;5053285;28;20691;-75
2021/12/26 03:10:27;;;;;;;0.90;0.90;;;-8.50;99.90;;;;;;5070484;28;20208;-75
2021/12/26 03:12:58;;;;;;;0.90;0.90;;;-8.40;99.90;;;;;;5071115;28;20192;-75
2021/12/26 03:15:27;;;;;;;0.83;0.83;;;-8.40;99.90;;;;;;5052501;28;20212;-75
2021/12/26 03:17:54;;;;;;;0.80;0.80;;;-8.40;99.90;;;;;;5071740;28;20208;-75
2021/12/26 03:20:24;;;;;;;0.90;0.90;;;-8.40;99.90;;;;;;5071502;28;20215;-74
2021/12/26 03:22:49;;;;;;;0.80;0.80;;;-8.40;99.90;;;;;;5070851;28;20239;-75
2021/12/26 03:25:19;;;;;;;1.00;1.00;;;-8.40;99.90;;;;;;5053366;28;20236;-75
2021/12/26 03:27:46;;;;;;;1.00;1.00;;;-8.40;99.90;;;;;;5071275;28;20276;-74
2021/12/26 03:30:14;;;;;;;0.97;0.97;;;-8.50;99.90;;;;;;5070507;28;20205;-75
2021/12/26 03:32:41;;;;;;;0.90;0.90;;;-8.50;99.90;;;;;;5071362;28;20213;-74
2021/12/26 03:35:08;;;;;;;0.90;0.90;;;-8.60;99.90;;;;;;5043440;28;20243;-74
2021/12/26 03:37:34;;;;;;;0.90;0.90;;;-8.70;99.90;;;;;;5066372;28;20303;-74
2021/12/26 03:39:59;;;;;;;0.90;0.90;;;-8.80;99.90;;;;;;5071330;28;20208;-74
2021/12/26 03:42:25;;;;;;;0.90;0.90;;;-8.70;99.90;;;;;;5071105;28;20212;-74
2021/12/26 03:44:52;;;;;;;0.90;0.90;;;-8.60;99.90;;;;;;5071293;28;20207;-74
2021/12/26 03:47:18;;;;;;;1.00;1.00;;;-8.50;99.90;;;;;;5046196;28;20572;-74
2021/12/26 03:49:44;;;;;;;0.80;0.80;;;-8.60;99.90;;;;;;5062188;28;20664;-74
2021/12/26 03:52:10;;;;;;;0.90;0.90;;;-8.60;99.90;;;;;;5069463;28;20690;-74
2021/12/26 03:54:36;;;;;;;0.90;0.90;;;-8.60;99.90;;;;;;5071160;28;20209;-74
2021/12/26 03:57:02;;;;;;;1.00;1.00;;;-8.60;99.90;;;;;;5071188;28;20204;-75
2021/12/26 03:59:28;;;;;;;1.00;1.00;;;-8.70;99.90;;;;;;5071070;28;20216;-74
2021/12/26 04:01:58;;;;;;;1.00;1.00;;;-8.70;99.90;;;;;;5042580;28;20558;-74
2021/12/26 04:04:24;;;;;;;1.00;1.00;;;-8.80;99.90;;;;;;5069833;28;20208;-75
2021/12/26 04:06:50;;;;;;;0.90;0.90;;;-8.90;99.90;;;;;;5070636;28;20208;-74
2021/12/26 04:09:16;;;;;;;0.90;0.90;;;-9.00;99.90;;;;;;5071237;28;20197;-74
2021/12/26 04:11:44;;;;;;;0.90;0.90;;;-9.00;99.90;;;;;;5052502;28;20558;-75
2021/12/26 04:14:12;;;;;;;0.90;0.90;;;-9.00;99.90;;;;;;5071384;28;20228;-75
2021/12/26 04:16:37;;;;;;;0.77;0.77;;;-9.10;99.90;;;;;;5070934;28;20212;-74
2021/12/26 04:19:04;;;;;;;0.90;0.90;;;-9.00;99.90;;;;;;5071972;28;20205;-75
2021/12/26 04:21:30;;;;;;;0.90;0.90;;;-9.00;99.90;;;;;;5074670;28;20216;-75
2021/12/26 04:23:56;;;;;;;0.90;0.90;;;-9.10;99.90;;;;;;5074727;28;20200;-74
2021/12/26 04:26:22;;;;;;;0.87;0.87;;;-9.10;99.90;;;;;;5073561;28;20201;-74
2021/12/26 04:28:47;;;;;;;0.90;0.90;;;-9.20;99.90;;;;;;5074687;28;20217;-75
2021/12/26 04:31:13;;;;;;;0.90;0.90;;;-9.20;99.90;;;;;;5073659;28;20212;-75
2021/12/26 04:33:39;;;;;;;1.00;1.00;;;-9.20;99.90;;;;;;5073447;28;20208;-74
2021/12/26 04:36:05;;;;;;;1.00;1.00;;;-9.10;99.90;;;;;;5057526;28;20217;-74
2021/12/26 04:38:31;;;;;;;0.90;0.90;;;-9.00;99.90;;;;;;5073358;28;20281;-73
2021/12/26 04:40:57;;;;;;;0.90;0.90;;;-9.00;99.90;;;;;;5074394;28;20295;-74
2021/12/26 04:43:25;;;;;;;0.90;0.90;;;-9.00;99.90;;;;;;5073212;28;20213;-74
2021/12/26 04:45:50;;;;;;;0.90;0.90;;;-9.00;99.90;;;;;;5073190;28;20204;-74
2021/12/26 04:48:16;;;;;;;0.93;0.93;;;-9.00;99.90;;;;;;5073335;28;20337;-75
2021/12/26 04:50:43;;;;;;;1.00;1.00;;;-9.00;99.90;;;;;;5074352;28;20205;-74
2021/12/26 04:53:09;;;;;;;0.93;0.93;;;-9.10;99.90;;;;;;5057291;28;20225;-74
2021/12/26 04:55:35;;;;;;;0.90;0.90;;;-9.20;99.90;;;;;;5073103;28;20640;-74
2021/12/26 04:58:01;;;;;;;0.90;0.90;;;-9.40;99.90;;;;;;5072172;28;20207;-74
2021/12/26 05:00:30;;;;;;;0.90;0.90;;;-9.40;99.90;;;;;;5057480;28;20263;-75
2021/12/26 05:02:58;;;;;;;0.90;0.90;;;-9.40;99.90;;;;;;5055021;28;20620;-74
2021/12/26 05:05:28;;;;;;;0.90;0.90;;;-9.40;99.90;;;;;;5056494;28;20200;-73
2021/12/26 05:07:54;;;;;;;0.90;0.90;;;-9.40;99.90;;;;;;5054132;28;20217;-73
2021/12/26 05:10:21;;;;;;;0.90;0.90;;;-9.30;99.90;;;;;;5074089;28;20193;-74
2021/12/26 05:12:47;;;;;;;1.67;1.40;;;-9.30;99.90;;;;;;5074041;28;20236;-75
2021/12/26 05:15:15;;;;;;;0.87;0.87;;;-9.40;99.90;;;;;;5074285;28;20217;-74
2021/12/26 05:17:40;;;;;;;0.90;0.90;;;-9.40;99.90;;;;;;5056841;28;20213;-74
2021/12/26 05:20:08;;;;;;;0.90;0.90;;;-9.40;99.90;;;;;;5073559;28;20205;-73
2021/12/26 05:22:34;;;;;;;1.00;1.00;;;-9.40;99.90;;;;;;5073618;28;20310;-74
2021/12/26 05:24:59;;;;;;;1.00;1.00;;;-9.50;99.90;;;;;;5056788;28;20267;-75
2021/12/26 05:27:25;;;;;;;0.90;0.90;;;-9.50;99.90;;;;;;5056459;28;20212;-75
2021/12/26 05:29:51;;;;;;;0.90;0.90;;;-9.60;99.90;;;;;;5071301;28;20201;-73
2021/12/26 05:32:17;;;;;;;1.00;1.00;;;-9.60;99.90;;;;;;5063707;28;20217;-73
2021/12/26 05:34:43;;;;;;;1.00;1.00;;;-9.70;99.90;;;;;;5057721;28;20568;-73
2021/12/26 05:37:08;;;;;;;0.90;0.90;;;-9.60;99.90;;;;;;5063213;28;20228;-73
2021/12/26 05:39:34;;;;;;;0.90;0.90;;;-9.60;99.90;;;;;;5055336;28;20288;-74
2021/12/26 05:42:00;;;;;;;1.00;1.00;;;-9.60;99.90;;;;;;5073532;28;20208;-74
2021/12/26 05:44:26;;;;;;;0.90;0.90;;;-9.60;99.90;;;;;;5072358;28;20213;-74
2021/12/26 05:46:51;;;;;;;1.00;1.00;;;-9.60;99.90;;;;;;5073448;28;20205;-74
2021/12/26 05:49:17;;;;;;;0.90;0.90;;;-9.70;99.90;;;;;;5073327;28;20209;-74
2021/12/26 05:51:43;;;;;;;0.90;0.90;;;-9.70;99.90;;;;;;5073188;28;20706;-75
2021/12/26 05:54:09;;;;;;;1.00;1.00;;;-9.80;99.90;;;;;;5055228;28;20228;-74
2021/12/26 05:56:35;;;;;;;0.90;0.90;;;-9.80;99.90;;;;;;5053830;28;20212;-74
2021/12/26 05:59:01;;;;;;;0.90;0.90;;;-9.80;99.90;;;;;;5054032;28;20197;-73
2021/12/26 06:01:26;;;;;;;0.90;0.90;;;-9.80;99.90;;;;;;5072773;28;20555;-74
2021/12/26 06:03:52;;;;;;;0.93;0.93;;;-9.70;99.90;;;;;;5073302;28;20201;-74
2021/12/26 06:06:18;;;;;;;1.10;1.10;;;-9.60;99.90;;;;;;5055316;28;20308;-74
2021/12/26 06:08:43;;;;;;;0.90;0.90;;;-9.50;99.90;;;;;;5054732;28;20240;-74
2021/12/26 06:11:09;;;;;;;0.90;0.90;;;-9.40;99.90;;;;;;5072740;28;20238;-74
2021/12/26 06:13:35;;;;;;;1.00;1.00;;;-9.30;99.90;;;;;;5071622;28;20208;-74
2021/12/26 06:16:01;;;;;;;0.90;0.90;;;-9.30;99.90;;;;;;5054736;28;20209;-74
2021/12/26 06:18:26;;;;;;;0.90;0.90;;;-9.20;99.90;;;;;;5072295;28;20242;-74
2021/12/26 06:20:52;;;;;;;0.80;0.80;;;-9.20;99.90;;;;;;5054735;28;20209;-73
2021/12/26 06:23:18;;;;;;;0.90;0.90;;;-9.10;99.90;;;;;;5072573;28;20213;-73
2021/12/26 06:25:44;;;;;;;0.90;0.90;;;-9.10;99.90;;;;;;5072455;28;20234;-74
2021/12/26 06:28:09;;;;;;;1.13;1.13;;;-9.00;99.90;;;;;;5054474;28;20584;-73
2021/12/26 06:30:36;;;;;;;1.00;1.00;;;-9.00;99.90;;;;;;5072277;28;20286;-74
2021/12/26 06:33:02;;;;;;;1.00;1.00;;;-9.00;99.90;;;;;;5071220;28;20208;-73
2021/12/26 06:35:27;;;;;;;1.00;1.00;;;-8.90;99.90;;;;;;5064313;28;20555;-75
2021/12/26 06:37:53;;;;;;;1.00;1.00;;;-8.90;99.90;;;;;;5072015;28;20231;-74
2021/12/26 06:40:19;;;;;;;1.00;1.00;;;-8.90;99.90;;;;;;5072138;28;20261;-74
2021/12/26 06:42:46;;;;;;;1.00;1.00;;;-8.90;99.90;;;;;;5070753;28;20288;-73
2021/12/26 06:45:15;;;;;;;0.90;0.90;;;-9.00;99.90;;;;;;5072465;28;20219;-74
2021/12/26 06:47:45;;;;;;;1.00;1.00;;;-9.00;99.90;;;;;;5071505;28;20209;-74
2021/12/26 06:50:11;;;;;;;1.70;1.60;;;-9.10;99.90;;;;;;5053276;28;20239;-74
2021/12/26 06:52:37;;;;;;;1.00;1.00;;;-9.20;99.90;;;;;;5071509;28;20304;-74
2021/12/26 06:55:04;;;;;;;1.10;1.10;;;-9.20;99.90;;;;;;5071300;28;20664;-75
2021/12/26 06:57:30;;;;;;;1.00;1.00;;;-9.40;99.90;;;;;;5070617;28;20213;-74
2021/12/26 06:59:56;;;;;;;0.90;0.90;;;-9.50;99.90;;;;;;5071851;28;20208;-74
2021/12/26 07:02:21;;;;;;;0.90;0.90;;;-9.50;99.90;;;;;;5071432;28;20296;-74
2021/12/26 07:04:47;;;;;;;0.90;0.90;;;-9.60;99.90;;;;;;5070753;28;20261;-74
2021/12/26 07:07:13;;;;;;;0.97;0.97;;;-9.70;99.90;;;;;;5070672;28;20223;-74
2021/12/26 07:09:39;;;;;;;1.00;1.00;;;-9.70;99.90;;;;;;5071617;28;20220;-73
2021/12/26 07:12:06;;;;;;;1.00;1.00;;;-9.70;99.90;;;;;;5070700;28;20288;-74
2021/12/26 07:14:32;;;;;;;1.00;1.00;;;-9.70;99.90;;;;;;5054337;28;20204;-74
2021/12/26 07:16:57;;;;;;;1.00;1.00;;;-9.70;99.90;;;;;;5070605;28;20223;-74
2021/12/26 07:19:23;;;;;;;1.00;1.00;;;-9.50;99.90;;;;;;5071480;28;20580;-73
2021/12/26 07:21:49;;;;;;;1.00;1.00;;;-9.40;99.90;;;;;;5054820;28;20636;-73
2021/12/26 07:24:15;;;;;;;0.90;0.90;;;-9.30;99.90;;;;;;5071686;28;20284;-73
2021/12/26 07:26:40;;;;;;;0.90;0.90;;;-9.30;99.90;;;;;;5071188;28;20703;-73
2021/12/26 07:29:06;;;;;;;0.83;0.83;;;-9.20;99.90;;;;;;5070467;28;20600;-73
2021/12/26 07:31:32;;;;;;;0.90;0.90;;;-9.10;99.90;;;;;;5071293;28;20211;-74
2021/12/26 07:33:58;;;;;;;0.90;0.90;;;-9.00;99.90;;;;;;5070276;28;20652;-74
2021/12/26 07:36:23;;;;;;;0.90;0.90;;;-8.90;99.90;;;;;;5071244;28;20311;-73
2021/12/26 07:38:51;;;;;;;1.33;1.23;;;-9.00;99.90;;;;;;5069789;28;20716;-75
2021/12/26 07:41:17;;;;;;;0.90;0.90;;;-9.00;99.90;;;;;;5071876;28;20213;-74
2021/12/26 07:43:42;;;;;;;0.93;0.93;;;-9.00;99.90;;;;;;5053235;28;20546;-75
2021/12/26 07:46:08;;;;;;;0.83;0.83;;;-9.00;99.90;;;;;;5071423;28;20212;-74
2021/12/26 07:48:34;;;;;;;1.00;1.00;;;-9.10;99.90;;;;;;5071160;28;20212;-74
2021/12/26 07:51:01;;;;;;;0.90;0.90;;;-9.20;99.90;;;;;;5071332;28;20315;-73
2021/12/26 07:53:27;;;;;;;1.50;1.40;;;-9.30;99.90;;;;;;5072507;28;20201;-73
2021/12/26 07:55:52;;;;;;;1.37;1.27;;;-9.40;99.90;;;;;;5074376;28;20258;-74
2021/12/26 07:58:18;;;;;;;1.50;1.40;;;-9.60;99.90;;;;;;5074337;28;20200;-73
2021/12/26 08:00:44;;;;;;;1.30;1.20;;;-9.70;99.90;;;;;;5075085;28;20208;-73
2021/12/26 08:03:10;;;;;;;3.57;3.27;;;-9.80;99.90;;;;;;5075372;28;20686;-74
2021/12/26 08:05:36;;;;;;;2.70;2.07;;;-10.00;99.90;;;;;;5075061;28;20200;-73
2021/12/26 08:08:02;;;;;;;0.90;0.90;;;-10.00;99.90;;;;;;5074061;28;20207;-74
2021/12/26 08:10:28;;;;;;;1.40;1.30;;;-10.10;99.90;;;;;;5073704;28;20568;-72
2021/12/26 08:12:54;;;;;;;2.03;1.93;;;-10.10;99.90;;;;;;5057087;28;20205;-72
2021/12/26 08:15:20;;;;;;;1.53;1.43;;;-10.10;99.90;;;;;;5073932;28;20209;-74
2021/12/26 08:17:45;;;;;;;0.90;0.90;;;-10.00;99.90;;;;;;5055932;28;20217;-73
2021/12/26 08:20:11;;;;;;;0.90;0.90;;;-9.90;99.90;;;;;;5056284;28;20200;-74
2021/12/26 08:22:37;;;;;;;0.90;0.90;;;-9.70;99.90;;;;;;5074968;28;20208;-74
2021/12/26 08:25:07;;;;;;;1.10;1.10;;;-9.30;99.90;;;;;;5057407;28;20201;-74
2021/12/26 08:27:33;;;;;;;1.00;1.00;;;-9.00;99.90;;;;;;5073488;28;20209;-74
2021/12/26 08:30:00;;;;;;;0.90;0.90;;;-8.70;99.90;;;;;;5074024;28;20302;-74
2021/12/26 08:32:27;;;;;;;1.00;1.00;;;-8.60;99.90;;;;;;5073404;28;20212;-75
2021/12/26 08:34:53;;;;;;;0.90;0.90;;;-8.70;99.90;;;;;;5065470;28;20205;-74
2021/12/26 08:37:19;;;;;;;0.90;0.90;;;-8.60;99.90;;;;;;5071901;28;20247;-75
2021/12/26 08:39:47;;;;;;;1.00;1.00;;;-8.60;99.90;;;;;;5068108;28;20228;-75
2021/12/26 08:42:13;;;;;;;0.90;0.90;;;-8.50;99.90;;;;;;5069968;28;20239;-75
2021/12/26 08:44:40;;;;;;;0.90;0.90;;;-8.60;99.90;;;;;;5064823;28;20782;-75
2021/12/26 08:47:10;;;;;;;0.90;0.90;;;-8.60;99.90;;;;;;5074588;28;20576;-74
2021/12/26 08:49:36;;;;;;;0.90;0.90;;;-8.50;99.90;;;;;;5063090;28;20240;-75
2021/12/26 08:52:03;;;;;;;0.90;0.90;;;-8.50;99.90;;;;;;5049749;28;20213;-76
2021/12/26 08:54:32;;;;;;;0.90;0.90;;;-8.50;99.90;;;;;;5056246;28;20265;-76
2021/12/26 08:56:59;;;;;;;1.00;1.00;;;-8.50;99.90;;;;;;5074291;28;20543;-77
2021/12/26 08:59:29;;;;;;;1.00;1.00;;;-8.40;99.90;;;;;;5072944;28;20751;-76
2021/12/26 09:01:57;;;;;;;1.00;1.00;;;-8.30;99.90;;;;;;5074181;28;20201;-76
2021/12/26 09:04:23;;;;;;;0.97;0.97;;;-8.20;99.90;;;;;;5055704;28;20215;-76
2021/12/26 09:06:49;;;;;;;1.00;1.00;;;-8.30;99.90;;;;;;5056758;28;20200;-75
2021/12/26 09:09:14;;;;;;;1.10;1.10;;;-8.30;99.90;;;;;;5072878;28;20207;-76
2021/12/26 09:11:40;;;;;;;1.00;1.00;;;-8.30;99.90;;;;;;5056483;28;20247;-76
2021/12/26 09:14:06;;;;;;;0.90;0.90;;;-8.30;99.90;;;;;;5074231;28;20212;-75
2021/12/26 09:16:35;;;;;;;1.37;1.27;;;-8.40;99.90;;;;;;5055671;28;20204;-76
2021/12/26 09:19:01;;;;;;;1.77;1.67;;;-8.50;99.90;;;;;;5073972;28;20197;-76
2021/12/26 09:21:27;;;;;;;0.90;0.90;;;-8.60;99.90;;;;;;5055147;28;20202;-76
2021/12/26 09:23:53;;;;;;;1.00;1.00;;;-8.70;99.90;;;;;;5073152;28;20255;-76
2021/12/26 09:26:19;;;;;;;1.63;1.53;;;-8.90;99.90;;;;;;5072806;28;20205;-75
2021/12/26 09:28:44;;;;;;;0.90;0.90;;;-8.90;99.90;;;;;;5055908;28;20303;-76
2021/12/26 09:31:10;;;;;;;0.90;0.90;;;-8.90;99.90;;;;;;5072560;28;20208;-76
2021/12/26 09:33:36;;;;;;;1.03;1.03;;;-9.00;99.90;;;;;;5071187;28;20284;-76
2021/12/26 09:36:02;;;;;;;1.10;1.10;;;-9.20;99.90;;;;;;5039472;28;20201;-76
2021/12/26 09:38:28;;;;;;;0.90;0.90;;;-9.30;99.90;;;;;;5070112;28;20216;-76
2021/12/26 09:40:55;;;;;;;0.90;0.90;;;-9.30;99.90;;;;;;5043344;28;20221;-76
2021/12/26 09:43:21;;;;;;;1.43;1.33;;;-9.30;99.90;;;;;;5069246;28;20277;-75
2021/12/26 09:45:46;;;;;;;1.37;1.27;;;-9.30;99.90;;;;;;5073621;28;20715;-76
2021/12/26 09:48:12;;;;;;;1.27;1.23;;;-9.30;99.90;;;;;;5072468;28;20300;-76
2021/12/26 09:50:38;;;;;;;1.20;1.20;;;-9.20;99.90;;;;;;5055843;28;20308;-76
2021/12/26 09:53:04;;;;;;;1.00;1.00;;;-9.20;99.90;;;;;;5073374;28;20588;-76
2021/12/26 09:55:32;;;;;;;0.87;0.87;;;-9.10;99.90;;;;;;5056309;28;20212;-76
2021/12/26 09:57:58;;;;;;;0.90;0.90;;;-9.00;99.90;;;;;;5055384;28;20250;-76
2021/12/26 10:00:40;;;;;;;0.90;0.90;;;-9.00;99.90;;;;;;5073066;28;20616;-75
2021/12/26 10:03:11;;;;;;;2.00;1.77;;;-8.90;99.90;;;;;;5071874;28;20208;-76
2021/12/26 10:05:56;;;;;;;0.90;0.90;;;-8.80;99.90;;;;;;5061810;28;20288;-76
2021/12/26 10:08:22;;;;;;;0.97;0.97;;;-8.60;99.90;;;;;;5051682;28;20212;-75
2021/12/26 10:11:14;;;;;;;1.10;1.10;;;-8.60;99.90;;;;;;5059445;28;20211;-76
2021/12/26 10:13:49;;;;;;;0.90;0.90;;;-8.50;99.90;;;;;;5054117;28;20220;-76
2021/12/26 10:16:17;;;;;;;1.00;1.00;;;-8.50;99.90;;;;;;5055342;28;20232;-76
2021/12/26 10:18:43;;;;;;;1.10;1.10;;;-8.40;99.90;;;;;;5055223;28;20209;-76
2021/12/26 10:21:30;;;;;;;1.43;1.33;;;-8.40;99.90;;;;;;5054787;28;20221;-76
2021/12/26 10:24:21;;;;;;;0.90;0.90;;;-8.40;99.90;;;;;;5055228;28;20242;-76
2021/12/26 10:26:48;;;;;;;1.40;1.30;;;-8.30;99.90;;;;;;5054229;28;20664;-75
2021/12/26 10:29:17;;;;;;;2.27;2.07;;;-8.30;99.90;;;;;;5063025;28;20194;-75
2021/12/26 10:31:57;;;;;;;0.90;0.90;;;-8.30;99.90;;;;;;5053879;28;20228;-75
2021/12/26 10:34:32;;;;;;;1.10;1.10;;;-8.20;99.90;;;;;;5037881;28;20654;-75
2021/12/26 10:37:01;;;;;;;0.90;0.90;;;-8.10;99.90;;;;;;5070935;28;20232;-75
2021/12/26 10:39:34;;;;;;;1.00;1.00;;;-7.90;99.90;;;;;;5069055;28;20203;-75
2021/12/26 10:42:07;;;;;;;3.23;2.60;;;-7.80;99.90;;;;;;5057010;28;20193;-75
2021/12/26 10:44:44;;;;;;;0.80;0.80;;;-7.70;99.90;;;;;;5054170;28;20219;-75
2021/12/26 10:47:19;;;;;;;0.90;0.90;;;-7.60;99.90;;;;;;5070863;28;20208;-76
2021/12/26 10:49:50;;;;;;;0.93;0.93;;;-7.50;99.90;;;;;;5070882;28;20216;-75
2021/12/26 10:52:26;;;;;;;1.37;1.27;;;-7.50;99.90;;;;;;5054154;28;20201;-75
2021/12/26 10:55:08;;;;;;;1.90;1.77;;;-7.50;99.90;;;;;;5054124;28;20283;-75
2021/12/26 10:57:36;;;;;;;0.90;0.90;;;-7.60;99.90;;;;;;5070786;28;20223;-76
2021/12/26 11:00:21;;;;;;;1.47;1.37;;;-7.50;99.90;;;;;;5070845;28;20204;-77
2021/12/26 11:02:48;;;;;;;1.00;1.00;;;-7.50;99.90;;;;;;5071747;28;20197;-75
2021/12/26 11:05:21;;;;;;;1.63;1.53;;;-7.50;99.90;;;;;;5053933;28;20559;-75
2021/12/26 11:07:57;;;;;;;0.83;0.83;;;-7.50;99.90;;;;;;5071781;28;20208;-76
2021/12/26 11:10:41;;;;;;;0.90;0.90;;;-7.40;99.90;;;;;;5070478;28;20211;-75
2021/12/26 11:13:16;;;;;;;1.00;1.00;;;-7.50;99.90;;;;;;5070800;28;20551;-76
2021/12/26 11:15:43;;;;;;;4.50;3.10;;;-7.50;99.90;;;;;;5054603;28;20197;-75
2021/12/26 11:18:11;;;;;;;1.10;1.10;;;-7.50;99.90;;;;;;5070566;28;20678;-76
2021/12/26 11:20:43;;;;;;;0.80;0.80;;;-7.50;99.90;;;;;;5071360;28;20208;-75
2021/12/26 11:23:15;;;;;;;0.90;0.90;;;-7.50;99.90;;;;;;5053649;28;20205;-75
2021/12/26 11:25:52;;;;;;;2.33;2.13;;;-7.40;99.90;;;;;;5070261;28;20733;-75
2021/12/26 11:28:26;;;;;;;1.13;1.13;;;-7.40;99.90;;;;;;5071204;28;20212;-75
2021/12/26 11:31:04;;;;;;;1.30;1.20;;;-7.40;99.90;;;;;;5054280;28;20740;-75
2021/12/26 11:33:31;;;;;;;1.23;1.23;;;-7.30;99.90;;;;;;5054276;28;20205;-75
2021/12/26 11:36:01;;;;;;;1.20;1.20;;;-7.30;99.90;;;;;;5040308;28;20202;-75
2021/12/26 11:38:30;;;;;;;0.90;0.90;;;-7.30;99.90;;;;;;5052494;28;20679;-75
2021/12/26 11:40:59;;;;;;;1.40;1.30;;;-7.30;99.90;;;;;;5071325;28;20204;-75
2021/12/26 11:43:44;;;;;;;1.87;1.73;;;-7.30;99.90;;;;;;5071503;28;20200;-75
2021/12/26 11:46:12;;;;;;;1.43;1.33;;;-7.30;99.90;;;;;;5070882;28;20241;-75
2021/12/26 11:48:59;;;;;;;1.53;1.47;;;-7.40;99.90;;;;;;5052921;28;20325;-75
2021/12/26 11:52:17;;;;;;;0.93;0.93;;;-7.30;99.90;;;;;;5070913;28;20233;-74
2021/12/26 11:55:03;;;;;;;0.90;0.90;;;-7.30;99.90;;;;;;4989636;28;20211;-75
2021/12/26 11:57:51;;;;;;;1.00;1.00;;;-7.30;99.90;;;;;;5060334;28;20256;-75
2021/12/26 12:00:22;;;;;;;1.00;1.00;;;-7.30;99.90;;;;;;5071188;28;20230;-76
2021/12/26 12:02:50;;;;;;;1.90;1.63;;;-7.20;99.90;;;;;;5051744;28;20219;-75
2021/12/26 12:05:38;;;;;;;1.27;1.20;;;-7.10;99.90;;;;;;5071358;28;20262;-75
2021/12/26 12:08:12;;;;;;;1.00;1.00;;;-7.10;99.90;;;;;;5071112;28;20221;-75
2021/12/26 12:10:55;;;;;;;0.90;0.90;;;-7.00;99.90;;;;;;5070987;28;20200;-76
2021/12/26 12:13:26;;;;;;;0.90;0.90;;;-7.00;99.90;;;;;;5069839;28;20215;-75
2021/12/26 12:16:02;;;;;;;0.90;0.90;;;-7.00;99.90;;;;;;5054093;28;20207;-75
2021/12/26 12:18:28;;;;;;;1.03;1.03;;;-7.00;99.90;;;;;;5069791;28;20617;-75
2021/12/26 12:21:12;;;;;;;0.90;0.90;;;-7.00;99.90;;;;;;5069893;28;20200;-75
2021/12/26 12:23:59;;;;;;;1.07;1.07;;;-7.00;99.90;;;;;;5069918;28;20940;-76
2021/12/26 12:26:51;;;;;;;1.00;1.00;;;-6.90;99.90;;;;;;5070331;28;20554;-74
2021/12/26 12:29:29;;;;;;;1.00;1.00;;;-6.90;99.90;;;;;;5053437;28;20220;-76
2021/12/26 12:32:06;;;;;;;0.90;0.90;;;-6.90;99.90;;;;;;5035159;28;20737;-77
2021/12/26 12:34:56;;;;;;;1.10;1.07;;;-6.80;99.90;;;;;;5055477;28;20552;-75
2021/12/26 12:37:28;;;;;;;4.20;2.30;;;-6.80;99.90;;;;;;5069315;28;20227;-74
2021/12/26 12:40:17;;;;;;;1.20;1.20;;;-6.80;99.90;;;;;;5052026;28;20720;-77
2021/12/26 12:43:05;;;;;;;2.83;1.97;;;-6.70;99.90;;;;;;5061478;28;20209;-77
2021/12/26 12:45:54;;;;;;;1.97;1.87;;;-6.70;99.90;;;;;;5054701;28;20239;-77
2021/12/26 12:48:37;;;;;;;1.33;1.23;;;-6.60;99.90;;;;;;5044218;28;20216;-77
2021/12/26 12:51:15;;;;;;;1.33;1.23;;;-6.60;99.90;;;;;;5073270;28;20250;-77
2021/12/26 12:53:47;;;;;;;1.20;1.10;;;-6.50;99.90;;;;;;5074191;28;20246;-77
2021/12/26 12:56:36;;;;;;;1.00;1.00;;;-6.50;99.90;;;;;;5057274;28;20216;-77
2021/12/26 12:59:14;;;;;;;0.90;0.90;;;-6.50;99.90;;;;;;5057066;28;20207;-77